createdAt,value
2023-03-02T00:04:20.797Z,70.21
2023-03-02T00:09:22.394Z,70.09
2023-03-02T00:14:23.899Z,70.70
2023-03-02T00:19:26.457Z,70.67
2023-03-02T00:24:27.954Z,70.86
2023-03-02T00:29:29.370Z,71.55
2023-03-02T00:34:33.747Z,71.28
2023-03-02T00:39:35.202Z,71.37
2023-03-02T00:44:36.642Z,71.72
2023-03-02T00:49:38.396Z,72.12
2023-03-02T00:54:39.841Z,72.39
2023-03-02T00:59:41.386Z,72.12
2023-03-02T01:04:44.469Z,72.21
2023-03-02T01:09:45.980Z,72.35
2023-03-02T01:14:49.008Z,72.75
2023-03-02T01:19:50.752Z,73.03
2023-03-02T01:24:53.353Z,73.06
2023-03-02T01:29:55.081Z,72.96
2023-03-02T01:34:56.508Z,73.07
2023-03-02T01:39:57.906Z,72.56
2023-03-02T01:44:59.483Z,73.06
2023-03-02T01:50:21.181Z,73.52
2023-03-02T01:55:25.891Z,73.49
2023-03-02T02:00:31.866Z,73.46
2023-03-02T02:05:33.313Z,73.31
2023-03-02T02:10:35.850Z,73.35
2023-03-02T02:15:38.974Z,73.53
2023-03-02T02:20:45.217Z,73.81
2023-03-02T02:25:49.697Z,73.80
2023-03-02T02:31:04.459Z,74.16
2023-03-02T02:36:10.106Z,74.06
2023-03-02T02:41:19.279Z,74.62
2023-03-02T02:46:20.904Z,74.30
2023-03-02T02:51:27.112Z,74.83
2023-03-02T02:56:35.080Z,74.97
2023-03-02T03:01:36.801Z,74.56
2023-03-02T03:06:48.718Z,75.44
2023-03-02T03:12:17.779Z,75.39
2023-03-02T03:17:19.263Z,75.99
2023-03-02T03:22:20.726Z,75.91
2023-03-02T03:27:22.150Z,75.46
2023-03-02T03:32:23.678Z,75.34
2023-03-02T03:37:25.251Z,75.60
2023-03-02T03:42:27.198Z,75.45
2023-03-02T03:47:28.649Z,75.52
2023-03-02T03:52:33.257Z,76.35
2023-03-02T03:57:34.712Z,77.36
2023-03-02T04:02:37.742Z,77.36
2023-03-02T04:07:40.109Z,77.47
2023-03-02T04:12:42.535Z,76.97
2023-03-02T04:17:45.020Z,77.62
2023-03-02T04:22:48.812Z,77.41
2023-03-02T04:27:52.956Z,77.21
2023-03-02T04:32:54.798Z,78.84
2023-03-02T04:37:56.251Z,78.50
2023-03-02T04:42:57.670Z,78.80
2023-03-02T04:47:59.364Z,78.24
2023-03-02T04:53:00.816Z,78.72
2023-03-02T04:58:02.278Z,79.92
2023-03-02T05:03:04.169Z,78.98
2023-03-02T05:08:05.686Z,78.57
2023-03-02T05:13:07.333Z,79.22
2023-03-02T05:18:10.849Z,79.27
2023-03-02T05:23:25.158Z,78.83
2023-03-02T05:28:27.781Z,79.25
2023-03-02T05:33:30.091Z,78.77
2023-03-02T05:38:31.801Z,79.11
2023-03-02T05:43:33.323Z,78.63
2023-03-02T05:48:34.952Z,78.39
2023-03-02T05:53:36.486Z,79.14
2023-03-02T05:58:37.938Z,78.77
2023-03-02T06:03:39.349Z,78.93
2023-03-02T06:08:41.980Z,78.74
2023-03-02T06:13:43.526Z,78.76
2023-03-02T06:18:44.944Z,79.75
2023-03-02T06:23:46.365Z,79.22
2023-03-02T06:28:52.461Z,78.87
2023-03-02T06:33:54.550Z,79.10
2023-03-02T06:38:56.034Z,78.98
2023-03-02T06:43:57.441Z,77.76
2023-03-02T06:48:58.848Z,77.39
2023-03-02T06:54:00.863Z,76.15
2023-03-02T06:59:02.314Z,75.47
2023-03-02T07:04:03.919Z,75.11
2023-03-02T07:09:05.384Z,75.05
2023-03-02T07:14:06.993Z,74.38
2023-03-02T07:19:13.712Z,73.70
2023-03-02T07:24:15.140Z,72.84
2023-03-02T07:29:16.646Z,71.24
2023-03-02T07:34:18.568Z,70.61
2023-03-02T07:39:20.374Z,69.43
2023-03-02T07:44:21.795Z,67.69
2023-03-02T07:49:23.233Z,66.73
2023-03-02T07:54:26.495Z,66.37
2023-03-02T07:59:28.856Z,67.87
2023-03-02T08:04:30.285Z,68.07
2023-03-02T08:09:31.781Z,67.77
2023-03-02T08:14:33.204Z,67.97
2023-03-02T08:19:34.791Z,67.66
2023-03-02T08:24:37.204Z,67.38
2023-03-02T08:29:38.649Z,66.65
2023-03-02T08:34:40.073Z,65.33
2023-03-02T08:39:41.481Z,64.83
2023-03-02T08:44:42.896Z,65.70
2023-03-02T08:49:45.561Z,64.36
2023-03-02T08:54:47.841Z,63.55
2023-03-02T08:59:49.363Z,63.16
2023-03-02T09:04:50.861Z,63.14
2023-03-02T09:09:52.309Z,62.86
2023-03-02T09:14:53.708Z,62.30
2023-03-02T09:19:55.135Z,62.12
2023-03-02T09:24:56.547Z,60.63
2023-03-02T09:29:58.057Z,61.30
2023-03-02T09:34:59.490Z,60.77
2023-03-02T09:40:00.959Z,59.61
2023-03-02T09:45:30.214Z,57.63
2023-03-02T09:50:35.960Z,59.27
2023-03-02T09:55:38.184Z,57.64
2023-03-02T10:00:43.899Z,57.61
2023-03-02T10:05:50.995Z,56.01
2023-03-02T10:11:18.079Z,55.19
2023-03-02T10:16:39.469Z,53.64
2023-03-02T10:21:44.820Z,52.33
2023-03-02T10:26:50.364Z,52.54
2023-03-02T10:32:06.499Z,53.27
2023-03-02T10:37:16.420Z,51.71
2023-03-02T10:42:32.062Z,51.96
2023-03-02T10:47:33.598Z,51.44
2023-03-02T10:52:35.016Z,51.44
2023-03-02T10:57:42.097Z,50.44
2023-03-02T11:02:57.379Z,49.82
2023-03-02T11:08:08.816Z,49.53
2023-03-02T11:13:28.195Z,49.08
2023-03-02T11:18:38.105Z,50.92
2023-03-02T11:23:45.493Z,50.81
2023-03-02T11:29:22.724Z,50.38
2023-03-02T11:34:43.254Z,50.74
2023-03-02T11:39:55.212Z,52.16
2023-03-02T11:45:02.042Z,52.64
2023-03-02T11:50:07.344Z,51.73
2023-03-02T11:55:11.959Z,51.95
2023-03-02T12:00:33.650Z,50.93
2023-03-02T12:05:39.031Z,53.18
2023-03-02T12:10:44.125Z,52.95
2023-03-02T12:15:50.949Z,53.17
2023-03-02T12:21:02.012Z,53.02
2023-03-02T12:26:29.534Z,53.62
2023-03-02T12:31:47.457Z,53.73
2023-03-02T12:36:50.634Z,53.23
2023-03-02T12:42:22.283Z,53.75
2023-03-02T12:47:29.763Z,53.67
2023-03-02T12:52:35.617Z,52.69
2023-03-02T12:57:46.632Z,53.06
2023-03-02T13:02:50.872Z,51.35
2023-03-02T13:08:03.298Z,52.93
2023-03-02T13:13:16.496Z,53.63
2023-03-02T13:18:20.030Z,52.56
2023-03-02T13:23:22.203Z,52.17
2023-03-02T13:28:31.529Z,51.78
2023-03-02T13:33:35.418Z,53.07
2023-03-02T13:38:38.424Z,53.72
2023-03-02T13:43:40.208Z,52.71
2023-03-02T13:48:41.825Z,53.62
2023-03-02T13:53:50.917Z,53.56
2023-03-02T13:58:52.453Z,54.17
2023-03-02T14:03:55.435Z,53.19
2023-03-02T14:08:58.632Z,53.56
2023-03-02T14:14:02.110Z,53.61
2023-03-02T14:19:04.058Z,52.71
2023-03-02T14:24:06.269Z,53.18
2023-03-02T14:29:21.634Z,53.37
2023-03-02T14:34:23.480Z,54.18
2023-03-02T14:39:35.308Z,54.02
2023-03-02T14:44:36.944Z,53.97
2023-03-02T14:49:39.121Z,53.70
2023-03-02T14:54:44.805Z,53.42
2023-03-02T14:59:47.017Z,53.46
2023-03-02T15:04:52.699Z,53.81
2023-03-02T15:09:56.155Z,53.94
2023-03-02T15:14:57.630Z,54.14
2023-03-02T15:19:59.542Z,53.95
2023-03-02T15:25:00.980Z,53.78
2023-03-02T15:30:02.494Z,53.34
2023-03-02T15:35:04.703Z,53.58
2023-03-02T15:40:06.932Z,54.06
2023-03-02T15:45:08.623Z,54.31
2023-03-02T15:50:11.073Z,54.37
2023-03-02T15:55:15.627Z,54.99
2023-03-02T16:00:18.019Z,54.60
2023-03-02T16:05:19.566Z,55.34
2023-03-02T16:10:21.246Z,55.49
2023-03-02T16:15:22.881Z,55.97
2023-03-02T16:20:24.588Z,55.59
2023-03-02T16:25:26.026Z,55.94
2023-03-02T16:30:27.756Z,56.27
2023-03-02T16:35:34.268Z,57.40
2023-03-02T16:40:37.246Z,58.46
2023-03-02T16:45:38.750Z,58.86
2023-03-02T16:50:43.394Z,59.83
2023-03-02T16:55:44.797Z,60.23
2023-03-02T17:00:46.445Z,61.84
2023-03-02T17:05:48.638Z,63.11
2023-03-02T17:10:50.084Z,62.57
2023-03-02T17:15:51.592Z,63.80
2023-03-02T17:20:55.168Z,64.80
2023-03-02T17:25:57.410Z,65.55
2023-03-02T17:31:00.514Z,65.24
2023-03-02T17:36:07.644Z,66.03
2023-03-02T17:41:11.578Z,65.87
2023-03-02T17:46:20.486Z,66.37
2023-03-02T17:51:23.316Z,65.39
2023-03-02T17:56:26.737Z,66.74
2023-03-02T18:01:29.841Z,65.79
2023-03-02T18:06:31.846Z,66.31
2023-03-02T18:11:33.599Z,67.45
2023-03-02T18:16:35.576Z,67.17
2023-03-02T18:21:38.470Z,67.38
2023-03-02T18:26:40.002Z,67.30
2023-03-02T18:31:41.639Z,68.12
2023-03-02T18:36:43.114Z,67.76
2023-03-02T18:41:44.634Z,68.13
2023-03-02T18:46:46.508Z,67.94
2023-03-02T18:51:48.536Z,67.55
2023-03-02T18:56:49.977Z,68.05
2023-03-02T19:01:51.469Z,67.85
2023-03-02T19:06:55.632Z,68.25
2023-03-02T19:11:57.062Z,68.12
2023-03-02T19:16:58.671Z,67.97
2023-03-02T19:22:01.102Z,68.47
2023-03-02T19:27:02.727Z,68.46
2023-03-02T19:32:04.736Z,68.84
2023-03-02T19:37:06.200Z,68.16
2023-03-02T19:42:07.787Z,68.28
2023-03-02T19:47:09.328Z,68.92
2023-03-02T19:52:10.764Z,68.76
2023-03-02T19:57:12.273Z,68.74
2023-03-02T20:02:15.056Z,68.78
2023-03-02T20:07:16.538Z,69.11
2023-03-02T20:12:18.127Z,69.24
2023-03-02T20:17:20.856Z,68.97
2023-03-02T20:22:25.841Z,69.52
2023-03-02T20:27:27.297Z,69.98
2023-03-02T20:32:30.039Z,69.73
2023-03-02T20:37:31.756Z,69.62
2023-03-02T20:42:34.074Z,70.17
2023-03-02T20:47:35.633Z,70.51
2023-03-02T20:52:37.740Z,70.59
2023-03-02T20:57:39.773Z,70.77
2023-03-02T21:02:41.467Z,70.50
2023-03-02T21:07:43.569Z,70.97
2023-03-02T21:12:45.692Z,71.29
2023-03-02T21:17:47.514Z,70.98
2023-03-02T21:22:49.051Z,71.63
2023-03-02T21:27:50.525Z,71.61
2023-03-02T21:32:51.959Z,71.90
2023-03-02T21:37:57.191Z,72.70
2023-03-02T21:43:00.369Z,73.29
2023-03-02T21:48:02.307Z,72.92
2023-03-02T21:53:04.294Z,73.14
2023-03-02T21:58:06.192Z,72.47
2023-03-02T22:03:07.848Z,73.05
2023-03-02T22:08:13.504Z,73.50
2023-03-02T22:13:23.930Z,73.53
2023-03-02T22:18:27.041Z,73.42
2023-03-02T22:23:28.566Z,73.34
2023-03-02T22:28:30.207Z,73.81
2023-03-02T22:33:33.925Z,73.79
2023-03-02T22:38:35.415Z,74.14
2023-03-02T22:43:36.867Z,74.51
2023-03-02T22:48:38.604Z,74.86
2023-03-02T22:53:46.368Z,74.53
2023-03-02T22:58:50.134Z,74.62
2023-03-02T23:04:12.949Z,74.88
2023-03-02T23:09:23.930Z,74.96
2023-03-02T23:14:28.580Z,74.97
2023-03-02T23:19:31.422Z,75.42
2023-03-02T23:24:32.857Z,75.63
2023-03-02T23:29:35.077Z,76.06
2023-03-02T23:34:36.518Z,75.84
2023-03-02T23:39:37.938Z,75.63
2023-03-02T23:44:39.426Z,75.95
2023-03-02T23:49:40.919Z,75.88
2023-03-02T23:54:43.340Z,75.82
2023-03-02T23:59:44.762Z,76.11
